Norman Y. Mineta San Jose International Airport San Jose US
ICAO: KSJC
IATA: SJC
Category: Large
Scheduled Services: Yes

Elevation: 62 ft
TransAlt. 18000 ft.

Airport Communications:
NORCAL APP:33.82
NORCAL APP:120.1
ATIS:126.95
CLNC DEL:118
CTAF:124
NORCAL DEP:121.3
GND:121.7
TWR:124

KSJC Zoom In..

Runways:

(A) RW 11 length 4599 ft width 100 ft
---- / hdg 123

(B) RW 12L length 11000 ft width 150 ft
---- / hdg 123

(C) RW 12R length 11000 ft width 150 ft
ILS 110.90 / hdg 123

(D) RW 29 length 4599 ft width 100 ft
---- / hdg 303

(E) RW 30L length 11000 ft width 150 ft
ILS 110.90 / hdg 303

(F) RW 30R length 11000 ft width 150 ft
---- / hdg 303

Location; KSJC
Day. 03 / Time. 01.53 Zulu
* Altimeter: 29.93
* Temperature: 29° c. 84.2°f.
* Wind from: 340° Speed 14 kn.
Dewpoint: 10° c.
Visibility: 10 Statute Miles.
Clouds: Few 6500 ft.
Clouds: Scattered 12000 ft.
Clouds: Broken 18000 ft.

KSJC 030153Z 34014KT 10SM FEW065 SCT120 BKN180 29/10 A2993 RMK AO2 SLP134 T02940100


Wind From 340°
Speed 14 kn.

 
 
jpsmedia worldairports.se 2020   terms of use